sensor_id;sensor_type;location;lat;lon;timestamp;P1;durP1;ratioP1;P2;durP2;ratioP2
16391;SDS011;8305;-33.882;151.134;2023-09-08T00:00:00;1.90;;;0.70;;
16391;SDS011;8305;-33.882;151.134;2023-09-08T00:02:32;0.73;;;0.60;;
16391;SDS011;8305;-33.882;151.134;2023-09-08T00:05:02;1.45;;;0.68;;
16391;SDS011;8305;-33.882;151.134;2023-09-08T00:07:34;0.98;;;0.60;;
16391;SDS011;8305;-33.882;151.134;2023-09-08T00:10:07;1.92;;;0.77;;
16391;SDS011;8305;-33.882;151.134;2023-09-08T00:12:39;1.20;;;0.70;;
16391;SDS011;8305;-33.882;151.134;2023-09-08T00:15:10;2.75;;;1.05;;
16391;SDS011;8305;-33.882;151.134;2023-09-08T00:17:41;0.82;;;0.77;;
16391;SDS011;8305;-33.882;151.134;2023-09-08T00:20:13;0.82;;;0.70;;
16391;SDS011;8305;-33.882;151.134;2023-09-08T00:22:47;4.45;;;1.13;;
16391;SDS011;8305;-33.882;151.134;2023-09-08T00:25:19;2.55;;;0.93;;
16391;SDS011;8305;-33.882;151.134;2023-09-08T00:27:50;3.63;;;0.80;;
16391;SDS011;8305;-33.882;151.134;2023-09-08T00:30:21;3.53;;;1.00;;
16391;SDS011;8305;-33.882;151.134;2023-09-08T00:32:51;2.95;;;1.05;;
16391;SDS011;8305;-33.882;151.134;2023-09-08T00:35:22;1.95;;;1.00;;
16391;SDS011;8305;-33.882;151.134;2023-09-08T00:37:53;3.05;;;1.15;;
16391;SDS011;8305;-33.882;151.134;2023-09-08T00:40:26;3.63;;;1.20;;
16391;SDS011;8305;-33.882;151.134;2023-09-08T00:42:57;2.35;;;1.23;;
16391;SDS011;8305;-33.882;151.134;2023-09-08T00:45:27;1.33;;;0.90;;
16391;SDS011;8305;-33.882;151.134;2023-09-08T00:47:59;1.05;;;0.90;;
16391;SDS011;8305;-33.882;151.134;2023-09-08T00:50:30;2.17;;;0.65;;
16391;SDS011;8305;-33.882;151.134;2023-09-08T00:53:01;1.75;;;0.68;;
16391;SDS011;8305;-33.882;151.134;2023-09-08T00:55:35;1.10;;;0.70;;
16391;SDS011;8305;-33.882;151.134;2023-09-08T00:58:08;2.58;;;0.90;;
16391;SDS011;8305;-33.882;151.134;2023-09-08T01:00:40;1.15;;;0.80;;
16391;SDS011;8305;-33.882;151.134;2023-09-08T01:03:11;1.38;;;0.80;;
16391;SDS011;8305;-33.882;151.134;2023-09-08T01:05:42;3.03;;;0.80;;
16391;SDS011;8305;-33.882;151.134;2023-09-08T01:08:14;0.90;;;0.60;;
16391;SDS011;8305;-33.882;151.134;2023-09-08T01:10:47;1.55;;;0.70;;
16391;SDS011;8305;-33.882;151.134;2023-09-08T01:13:18;3.35;;;0.80;;
16391;SDS011;8305;-33.882;151.134;2023-09-08T01:15:49;2.53;;;0.80;;
16391;SDS011;8305;-33.882;151.134;2023-09-08T01:18:20;1.95;;;0.90;;
16391;SDS011;8305;-33.882;151.134;2023-09-08T01:21:03;2.95;;;0.88;;
16391;SDS011;8305;-33.882;151.134;2023-09-08T01:24:05;1.35;;;0.80;;
16391;SDS011;8305;-33.882;151.134;2023-09-08T01:26:48;1.20;;;0.70;;
16391;SDS011;8305;-33.882;151.134;2023-09-08T01:29:19;1.50;;;0.60;;
16391;SDS011;8305;-33.882;151.134;2023-09-08T01:31:51;2.40;;;0.68;;
16391;SDS011;8305;-33.882;151.134;2023-09-08T01:34:22;1.20;;;0.65;;
16391;SDS011;8305;-33.882;151.134;2023-09-08T01:36:53;0.63;;;0.60;;
16391;SDS011;8305;-33.882;151.134;2023-09-08T01:39:26;1.75;;;0.80;;
16391;SDS011;8305;-33.882;151.134;2023-09-08T01:41:58;1.70;;;0.70;;
16391;SDS011;8305;-33.882;151.134;2023-09-08T01:44:29;1.05;;;0.60;;
16391;SDS011;8305;-33.882;151.134;2023-09-08T01:47:00;0.50;;;0.50;;
16391;SDS011;8305;-33.882;151.134;2023-09-08T01:49:31;0.73;;;0.45;;
16391;SDS011;8305;-33.882;151.134;2023-09-08T01:52:01;0.70;;;0.60;;
16391;SDS011;8305;-33.882;151.134;2023-09-08T01:54:32;2.25;;;0.80;;
16391;SDS011;8305;-33.882;151.134;2023-09-08T01:57:05;1.90;;;0.68;;
16391;SDS011;8305;-33.882;151.134;2023-09-08T01:59:36;0.50;;;0.50;;
16391;SDS011;8305;-33.882;151.134;2023-09-08T02:02:06;0.85;;;0.40;;
16391;SDS011;8305;-33.882;151.134;2023-09-08T02:04:37;1.98;;;0.50;;
16391;SDS011;8305;-33.882;151.134;2023-09-08T02:07:08;0.45;;;0.45;;
16391;SDS011;8305;-33.882;151.134;2023-09-08T02:09:39;0.80;;;0.40;;
16391;SDS011;8305;-33.882;151.134;2023-09-08T02:12:12;2.15;;;0.40;;
16391;SDS011;8305;-33.882;151.134;2023-09-08T02:14:43;0.63;;;0.50;;
16391;SDS011;8305;-33.882;151.134;2023-09-08T02:17:13;0.70;;;0.50;;
16391;SDS011;8305;-33.882;151.134;2023-09-08T02:19:44;1.83;;;0.55;;
16391;SDS011;8305;-33.882;151.134;2023-09-08T02:22:15;0.93;;;0.50;;
16391;SDS011;8305;-33.882;151.134;2023-09-08T02:24:46;0.50;;;0.40;;
16391;SDS011;8305;-33.882;151.134;2023-09-08T02:27:19;1.00;;;0.52;;
16391;SDS011;8305;-33.882;151.134;2023-09-08T02:29:50;0.95;;;0.60;;
16391;SDS011;8305;-33.882;151.134;2023-09-08T02:32:21;0.73;;;0.40;;
16391;SDS011;8305;-33.882;151.134;2023-09-08T02:34:54;1.63;;;0.50;;
16391;SDS011;8305;-33.882;151.134;2023-09-08T02:37:25;1.20;;;0.60;;
16391;SDS011;8305;-33.882;151.134;2023-09-08T02:39:55;1.35;;;0.40;;
16391;SDS011;8305;-33.882;151.134;2023-09-08T02:42:28;0.55;;;0.38;;
16391;SDS011;8305;-33.882;151.134;2023-09-08T02:44:59;0.75;;;0.35;;
16391;SDS011;8305;-33.882;151.134;2023-09-08T02:47:29;0.95;;;0.70;;
16391;SDS011;8305;-33.882;151.134;2023-09-08T02:50:00;1.30;;;0.65;;
16391;SDS011;8305;-33.882;151.134;2023-09-08T02:52:33;1.67;;;0.50;;
16391;SDS011;8305;-33.882;151.134;2023-09-08T02:55:04;2.38;;;0.68;;
16391;SDS011;8305;-33.882;151.134;2023-09-08T02:57:37;0.90;;;0.50;;
16391;SDS011;8305;-33.882;151.134;2023-09-08T03:00:08;0.68;;;0.50;;
16391;SDS011;8305;-33.882;151.134;2023-09-08T03:02:39;0.90;;;0.50;;
16391;SDS011;8305;-33.882;151.134;2023-09-08T03:05:10;1.40;;;0.60;;
16391;SDS011;8305;-33.882;151.134;2023-09-08T03:07:40;1.27;;;0.55;;
16391;SDS011;8305;-33.882;151.134;2023-09-08T03:10:11;0.57;;;0.50;;
16391;SDS011;8305;-33.882;151.134;2023-09-08T03:12:44;0.65;;;0.50;;
16391;SDS011;8305;-33.882;151.134;2023-09-08T03:15:15;1.05;;;0.55;;
16391;SDS011;8305;-33.882;151.134;2023-09-08T03:17:46;1.30;;;0.52;;
16391;SDS011;8305;-33.882;151.134;2023-09-08T03:20:17;0.95;;;0.60;;
16391;SDS011;8305;-33.882;151.134;2023-09-08T03:22:48;2.47;;;0.73;;
16391;SDS011;8305;-33.882;151.134;2023-09-08T03:25:19;0.60;;;0.60;;
16391;SDS011;8305;-33.882;151.134;2023-09-08T03:27:51;0.50;;;0.50;;
16391;SDS011;8305;-33.882;151.134;2023-09-08T03:30:22;1.92;;;0.70;;
16391;SDS011;8305;-33.882;151.134;2023-09-08T03:32:53;1.38;;;0.50;;
16391;SDS011;8305;-33.882;151.134;2023-09-08T03:35:24;0.85;;;0.57;;
16391;SDS011;8305;-33.882;151.134;2023-09-08T03:37:55;0.70;;;0.40;;
16391;SDS011;8305;-33.882;151.134;2023-09-08T03:40:25;1.05;;;0.50;;
16391;SDS011;8305;-33.882;151.134;2023-09-08T03:42:58;1.92;;;0.55;;
16391;SDS011;8305;-33.882;151.134;2023-09-08T03:45:29;0.70;;;0.40;;
16391;SDS011;8305;-33.882;151.134;2023-09-08T03:48:00;1.17;;;0.50;;
16391;SDS011;8305;-33.882;151.134;2023-09-08T03:50:31;1.40;;;0.75;;
16391;SDS011;8305;-33.882;151.134;2023-09-08T03:53:02;2.50;;;0.73;;
16391;SDS011;8305;-33.882;151.134;2023-09-08T03:55:33;2.13;;;0.40;;
16391;SDS011;8305;-33.882;151.134;2023-09-08T03:58:06;0.55;;;0.47;;
16391;SDS011;8305;-33.882;151.134;2023-09-08T04:00:36;1.77;;;0.65;;
16391;SDS011;8305;-33.882;151.134;2023-09-08T04:03:07;1.42;;;0.40;;
16391;SDS011;8305;-33.882;151.134;2023-09-08T04:05:38;0.77;;;0.40;;
16391;SDS011;8305;-33.882;151.134;2023-09-08T04:08:09;1.38;;;0.40;;
16391;SDS011;8305;-33.882;151.134;2023-09-08T04:10:40;0.32;;;0.20;;
16391;SDS011;8305;-33.882;151.134;2023-09-08T04:13:12;1.55;;;0.30;;
16391;SDS011;8305;-33.882;151.134;2023-09-08T04:15:43;1.52;;;0.30;;
16391;SDS011;8305;-33.882;151.134;2023-09-08T04:18:14;0.50;;;0.20;;
16391;SDS011;8305;-33.882;151.134;2023-09-08T04:20:45;0.35;;;0.20;;
16391;SDS011;8305;-33.882;151.134;2023-09-08T04:23:16;1.17;;;0.30;;
16391;SDS011;8305;-33.882;151.134;2023-09-08T04:25:46;0.45;;;0.28;;
16391;SDS011;8305;-33.882;151.134;2023-09-08T04:28:19;1.15;;;0.30;;
16391;SDS011;8305;-33.882;151.134;2023-09-08T04:30:50;0.63;;;0.30;;
16391;SDS011;8305;-33.882;151.134;2023-09-08T04:33:21;1.38;;;0.30;;
16391;SDS011;8305;-33.882;151.134;2023-09-08T04:35:52;0.98;;;0.20;;
16391;SDS011;8305;-33.882;151.134;2023-09-08T04:38:23;1.15;;;0.40;;
16391;SDS011;8305;-33.882;151.134;2023-09-08T04:40:54;0.63;;;0.40;;
16391;SDS011;8305;-33.882;151.134;2023-09-08T04:43:26;0.93;;;0.50;;
16391;SDS011;8305;-33.882;151.134;2023-09-08T04:45:57;1.42;;;0.30;;
16391;SDS011;8305;-33.882;151.134;2023-09-08T04:48:29;0.95;;;0.20;;
16391;SDS011;8305;-33.882;151.134;2023-09-08T04:51:00;0.47;;;0.30;;
16391;SDS011;8305;-33.882;151.134;2023-09-08T04:53:30;1.10;;;0.40;;
16391;SDS011;8305;-33.882;151.134;2023-09-08T04:56:02;2.28;;;0.30;;
16391;SDS011;8305;-33.882;151.134;2023-09-08T04:58:35;1.38;;;0.20;;
16391;SDS011;8305;-33.882;151.134;2023-09-08T05:01:06;0.85;;;0.20;;
16391;SDS011;8305;-33.882;151.134;2023-09-08T05:03:37;0.47;;;0.20;;
16391;SDS011;8305;-33.882;151.134;2023-09-08T05:06:08;0.63;;;0.20;;
16391;SDS011;8305;-33.882;151.134;2023-09-08T05:08:40;0.77;;;0.20;;
16391;SDS011;8305;-33.882;151.134;2023-09-08T05:11:10;1.80;;;0.20;;
16391;SDS011;8305;-33.882;151.134;2023-09-08T05:13:43;1.35;;;0.20;;
16391;SDS011;8305;-33.882;151.134;2023-09-08T05:16:15;0.30;;;0.20;;
16391;SDS011;8305;-33.882;151.134;2023-09-08T05:18:52;1.42;;;0.30;;
16391;SDS011;8305;-33.882;151.134;2023-09-08T05:21:22;0.10;;;0.10;;
16391;SDS011;8305;-33.882;151.134;2023-09-08T05:23:53;0.65;;;0.22;;
16391;SDS011;8305;-33.882;151.134;2023-09-08T05:26:24;0.65;;;0.20;;
16391;SDS011;8305;-33.882;151.134;2023-09-08T05:28:57;0.55;;;0.30;;
16391;SDS011;8305;-33.882;151.134;2023-09-08T05:31:28;2.65;;;0.22;;
16391;SDS011;8305;-33.882;151.134;2023-09-08T05:33:58;0.30;;;0.20;;
16391;SDS011;8305;-33.882;151.134;2023-09-08T05:36:29;0.35;;;0.20;;
16391;SDS011;8305;-33.882;151.134;2023-09-08T05:39:02;0.68;;;0.20;;
16391;SDS011;8305;-33.882;151.134;2023-09-08T05:41:33;0.45;;;0.20;;
16391;SDS011;8305;-33.882;151.134;2023-09-08T05:44:06;0.35;;;0.20;;
16391;SDS011;8305;-33.882;151.134;2023-09-08T05:46:37;0.63;;;0.30;;
16391;SDS011;8305;-33.882;151.134;2023-09-08T05:49:08;0.85;;;0.20;;
16391;SDS011;8305;-33.882;151.134;2023-09-08T05:51:38;1.23;;;0.20;;
16391;SDS011;8305;-33.882;151.134;2023-09-08T05:54:09;0.60;;;0.20;;
16391;SDS011;8305;-33.882;151.134;2023-09-08T05:56:40;1.55;;;0.20;;
16391;SDS011;8305;-33.882;151.134;2023-09-08T05:59:14;0.75;;;0.30;;
16391;SDS011;8305;-33.882;151.134;2023-09-08T06:01:45;1.05;;;0.30;;
16391;SDS011;8305;-33.882;151.134;2023-09-08T06:04:16;1.92;;;0.20;;
16391;SDS011;8305;-33.882;151.134;2023-09-08T06:06:46;0.45;;;0.20;;
16391;SDS011;8305;-33.882;151.134;2023-09-08T06:09:17;1.23;;;0.35;;
16391;SDS011;8305;-33.882;151.134;2023-09-08T06:11:48;0.80;;;0.28;;
16391;SDS011;8305;-33.882;151.134;2023-09-08T06:14:21;0.20;;;0.15;;
16391;SDS011;8305;-33.882;151.134;2023-09-08T06:16:52;1.50;;;0.20;;
16391;SDS011;8305;-33.882;151.134;2023-09-08T06:19:22;0.95;;;0.30;;
16391;SDS011;8305;-33.882;151.134;2023-09-08T06:21:53;0.40;;;0.20;;
16391;SDS011;8305;-33.882;151.134;2023-09-08T06:24:24;0.20;;;0.20;;
16391;SDS011;8305;-33.882;151.134;2023-09-08T06:26:57;0.20;;;0.20;;
16391;SDS011;8305;-33.882;151.134;2023-09-08T06:29:29;0.22;;;0.20;;
16391;SDS011;8305;-33.882;151.134;2023-09-08T06:32:00;1.10;;;0.20;;
16391;SDS011;8305;-33.882;151.134;2023-09-08T06:34:31;0.40;;;0.20;;
16391;SDS011;8305;-33.882;151.134;2023-09-08T06:37:02;0.68;;;0.20;;
16391;SDS011;8305;-33.882;151.134;2023-09-08T06:39:33;0.40;;;0.30;;
16391;SDS011;8305;-33.882;151.134;2023-09-08T06:42:04;0.22;;;0.20;;
16391;SDS011;8305;-33.882;151.134;2023-09-08T06:44:37;0.30;;;0.30;;
16391;SDS011;8305;-33.882;151.134;2023-09-08T06:47:08;0.13;;;0.13;;
16391;SDS011;8305;-33.882;151.134;2023-09-08T06:49:39;0.68;;;0.20;;
16391;SDS011;8305;-33.882;151.134;2023-09-08T06:52:09;1.20;;;0.20;;
16391;SDS011;8305;-33.882;151.134;2023-09-08T06:54:40;0.52;;;0.20;;
16391;SDS011;8305;-33.882;151.134;2023-09-08T06:57:13;2.60;;;0.38;;
16391;SDS011;8305;-33.882;151.134;2023-09-08T06:59:49;0.50;;;0.20;;
16391;SDS011;8305;-33.882;151.134;2023-09-08T07:02:19;0.43;;;0.20;;
16391;SDS011;8305;-33.882;151.134;2023-09-08T07:04:50;2.50;;;0.30;;
16391;SDS011;8305;-33.882;151.134;2023-09-08T07:07:21;1.90;;;0.30;;
16391;SDS011;8305;-33.882;151.134;2023-09-08T07:09:52;0.20;;;0.20;;
16391;SDS011;8305;-33.882;151.134;2023-09-08T07:12:22;0.10;;;0.10;;
16391;SDS011;8305;-33.882;151.134;2023-09-08T07:14:55;1.90;;;1.15;;
16391;SDS011;8305;-33.882;151.134;2023-09-08T07:17:26;0.38;;;0.20;;
16391;SDS011;8305;-33.882;151.134;2023-09-08T07:19:57;1.95;;;0.20;;
16391;SDS011;8305;-33.882;151.134;2023-09-08T07:22:28;0.20;;;0.20;;
16391;SDS011;8305;-33.882;151.134;2023-09-08T07:24:59;0.75;;;0.30;;
16391;SDS011;8305;-33.882;151.134;2023-09-08T07:27:30;0.38;;;0.25;;
16391;SDS011;8305;-33.882;151.134;2023-09-08T07:30:03;0.50;;;0.30;;
16391;SDS011;8305;-33.882;151.134;2023-09-08T07:32:34;0.60;;;0.30;;
16391;SDS011;8305;-33.882;151.134;2023-09-08T07:35:05;0.55;;;0.30;;
16391;SDS011;8305;-33.882;151.134;2023-09-08T07:37:40;0.57;;;0.30;;
16391;SDS011;8305;-33.882;151.134;2023-09-08T07:40:11;0.30;;;0.30;;
16391;SDS011;8305;-33.882;151.134;2023-09-08T07:42:42;0.20;;;0.20;;
16391;SDS011;8305;-33.882;151.134;2023-09-08T07:45:15;0.35;;;0.25;;
16391;SDS011;8305;-33.882;151.134;2023-09-08T07:47:45;0.47;;;0.30;;
16391;SDS011;8305;-33.882;151.134;2023-09-08T07:50:17;0.20;;;0.20;;
16391;SDS011;8305;-33.882;151.134;2023-09-08T07:52:49;0.30;;;0.25;;
16391;SDS011;8305;-33.882;151.134;2023-09-08T07:55:21;0.90;;;0.30;;
16391;SDS011;8305;-33.882;151.134;2023-09-08T07:57:53;2.72;;;0.40;;
16391;SDS011;8305;-33.882;151.134;2023-09-08T08:00:26;0.55;;;0.30;;
16391;SDS011;8305;-33.882;151.134;2023-09-08T08:02:59;0.85;;;0.30;;
16391;SDS011;8305;-33.882;151.134;2023-09-08T08:05:30;1.65;;;0.40;;
16391;SDS011;8305;-33.882;151.134;2023-09-08T08:08:00;0.57;;;0.40;;
16391;SDS011;8305;-33.882;151.134;2023-09-08T08:10:32;0.82;;;0.30;;
16391;SDS011;8305;-33.882;151.134;2023-09-08T08:13:03;0.80;;;0.32;;
16391;SDS011;8305;-33.882;151.134;2023-09-08T08:15:39;0.30;;;0.30;;
16391;SDS011;8305;-33.882;151.134;2023-09-08T08:18:11;0.73;;;0.40;;
16391;SDS011;8305;-33.882;151.134;2023-09-08T08:20:42;0.40;;;0.30;;
16391;SDS011;8305;-33.882;151.134;2023-09-08T08:23:13;0.40;;;0.40;;
16391;SDS011;8305;-33.882;151.134;2023-09-08T08:25:44;0.52;;;0.38;;
16391;SDS011;8305;-33.882;151.134;2023-09-08T08:28:14;0.40;;;0.40;;
16391;SDS011;8305;-33.882;151.134;2023-09-08T08:30:47;0.68;;;0.30;;
16391;SDS011;8305;-33.882;151.134;2023-09-08T08:33:18;0.63;;;0.40;;
16391;SDS011;8305;-33.882;151.134;2023-09-08T08:35:49;1.08;;;0.52;;
16391;SDS011;8305;-33.882;151.134;2023-09-08T08:38:27;1.08;;;0.40;;
16391;SDS011;8305;-33.882;151.134;2023-09-08T08:41:02;1.15;;;0.50;;
16391;SDS011;8305;-33.882;151.134;2023-09-08T08:43:33;0.45;;;0.45;;
16391;SDS011;8305;-33.882;151.134;2023-09-08T08:46:06;1.33;;;0.50;;
16391;SDS011;8305;-33.882;151.134;2023-09-08T08:48:37;2.65;;;0.52;;
16391;SDS011;8305;-33.882;151.134;2023-09-08T08:51:09;0.63;;;0.50;;
16391;SDS011;8305;-33.882;151.134;2023-09-08T08:53:42;0.70;;;0.40;;
16391;SDS011;8305;-33.882;151.134;2023-09-08T08:56:12;0.65;;;0.55;;
16391;SDS011;8305;-33.882;151.134;2023-09-08T08:58:45;0.52;;;0.40;;
16391;SDS011;8305;-33.882;151.134;2023-09-08T09:01:19;0.30;;;0.30;;
16391;SDS011;8305;-33.882;151.134;2023-09-08T09:03:51;1.00;;;0.45;;
16391;SDS011;8305;-33.882;151.134;2023-09-08T09:06:22;0.47;;;0.32;;
16391;SDS011;8305;-33.882;151.134;2023-09-08T09:08:53;0.63;;;0.40;;
16391;SDS011;8305;-33.882;151.134;2023-09-08T09:11:24;1.42;;;0.38;;
16391;SDS011;8305;-33.882;151.134;2023-09-08T09:13:55;0.60;;;0.30;;
16391;SDS011;8305;-33.882;151.134;2023-09-08T09:16:28;0.52;;;0.40;;
16391;SDS011;8305;-33.882;151.134;2023-09-08T09:18:59;0.40;;;0.40;;
16391;SDS011;8305;-33.882;151.134;2023-09-08T09:21:40;0.38;;;0.30;;
16391;SDS011;8305;-33.882;151.134;2023-09-08T09:24:15;1.30;;;0.50;;
16391;SDS011;8305;-33.882;151.134;2023-09-08T09:26:56;0.95;;;0.40;;
16391;SDS011;8305;-33.882;151.134;2023-09-08T09:29:27;1.88;;;0.40;;
16391;SDS011;8305;-33.882;151.134;2023-09-08T09:32:02;1.05;;;0.45;;
16391;SDS011;8305;-33.882;151.134;2023-09-08T09:34:34;1.08;;;0.50;;
16391;SDS011;8305;-33.882;151.134;2023-09-08T09:37:12;1.08;;;0.50;;
16391;SDS011;8305;-33.882;151.134;2023-09-08T09:39:45;0.45;;;0.40;;
16391;SDS011;8305;-33.882;151.134;2023-09-08T09:42:19;1.85;;;0.50;;
16391;SDS011;8305;-33.882;151.134;2023-09-08T09:44:50;1.05;;;0.70;;
16391;SDS011;8305;-33.882;151.134;2023-09-08T09:47:23;1.38;;;0.80;;
16391;SDS011;8305;-33.882;151.134;2023-09-08T09:49:54;2.58;;;0.70;;
16391;SDS011;8305;-33.882;151.134;2023-09-08T09:52:25;2.45;;;0.85;;
16391;SDS011;8305;-33.882;151.134;2023-09-08T09:54:58;1.73;;;0.80;;
16391;SDS011;8305;-33.882;151.134;2023-09-08T09:57:32;1.38;;;0.70;;
16391;SDS011;8305;-33.882;151.134;2023-09-08T10:00:04;1.73;;;0.80;;
16391;SDS011;8305;-33.882;151.134;2023-09-08T10:02:37;0.88;;;0.60;;
16391;SDS011;8305;-33.882;151.134;2023-09-08T10:05:11;1.63;;;0.70;;
16391;SDS011;8305;-33.882;151.134;2023-09-08T10:07:42;0.57;;;0.40;;
16391;SDS011;8305;-33.882;151.134;2023-09-08T10:10:15;0.68;;;0.45;;
16391;SDS011;8305;-33.882;151.134;2023-09-08T10:12:49;1.33;;;0.70;;
16391;SDS011;8305;-33.882;151.134;2023-09-08T10:15:23;1.50;;;0.68;;
16391;SDS011;8305;-33.882;151.134;2023-09-08T10:17:56;1.63;;;0.80;;
16391;SDS011;8305;-33.882;151.134;2023-09-08T10:20:28;0.65;;;0.60;;
16391;SDS011;8305;-33.882;151.134;2023-09-08T10:23:01;1.95;;;0.77;;
16391;SDS011;8305;-33.882;151.134;2023-09-08T10:25:39;1.70;;;0.50;;
16391;SDS011;8305;-33.882;151.134;2023-09-08T10:28:19;0.88;;;0.55;;
16391;SDS011;8305;-33.882;151.134;2023-09-08T10:30:50;1.15;;;0.65;;
16391;SDS011;8305;-33.882;151.134;2023-09-08T10:33:24;1.10;;;0.60;;
16391;SDS011;8305;-33.882;151.134;2023-09-08T10:35:55;1.00;;;0.65;;
16391;SDS011;8305;-33.882;151.134;2023-09-08T10:38:29;1.10;;;1.00;;
16391;SDS011;8305;-33.882;151.134;2023-09-08T10:44:03;1.65;;;0.70;;
16391;SDS011;8305;-33.882;151.134;2023-09-08T10:46:36;1.65;;;0.70;;
16391;SDS011;8305;-33.882;151.134;2023-09-08T10:49:09;1.10;;;0.50;;
16391;SDS011;8305;-33.882;151.134;2023-09-08T10:51:39;0.77;;;0.50;;
16391;SDS011;8305;-33.882;151.134;2023-09-08T10:54:11;1.55;;;0.60;;
16391;SDS011;8305;-33.882;151.134;2023-09-08T10:57:01;2.30;;;0.60;;
16391;SDS011;8305;-33.882;151.134;2023-09-08T10:59:42;0.95;;;0.70;;
16391;SDS011;8305;-33.882;151.134;2023-09-08T11:02:33;2.00;;;0.70;;
16391;SDS011;8305;-33.882;151.134;2023-09-08T11:05:08;1.05;;;0.60;;
16391;SDS011;8305;-33.882;151.134;2023-09-08T11:07:40;2.55;;;0.85;;
16391;SDS011;8305;-33.882;151.134;2023-09-08T11:10:12;1.35;;;0.70;;
16391;SDS011;8305;-33.882;151.134;2023-09-08T11:12:42;1.35;;;0.60;;
16391;SDS011;8305;-33.882;151.134;2023-09-08T11:15:15;1.25;;;0.88;;
16391;SDS011;8305;-33.882;151.134;2023-09-08T11:17:46;1.60;;;0.50;;
16391;SDS011;8305;-33.882;151.134;2023-09-08T11:20:25;1.60;;;0.60;;
16391;SDS011;8305;-33.882;151.134;2023-09-08T11:22:56;3.55;;;0.80;;
16391;SDS011;8305;-33.882;151.134;2023-09-08T11:25:27;2.42;;;0.63;;
16391;SDS011;8305;-33.882;151.134;2023-09-08T11:27:58;1.20;;;0.50;;
16391;SDS011;8305;-33.882;151.134;2023-09-08T11:30:29;1.48;;;0.70;;
16391;SDS011;8305;-33.882;151.134;2023-09-08T11:33:00;1.20;;;0.50;;
16391;SDS011;8305;-33.882;151.134;2023-09-08T11:35:34;0.88;;;0.50;;
16391;SDS011;8305;-33.882;151.134;2023-09-08T11:38:05;0.57;;;0.40;;
16391;SDS011;8305;-33.882;151.134;2023-09-08T11:40:38;1.05;;;0.80;;
16391;SDS011;8305;-33.882;151.134;2023-09-08T11:43:09;1.88;;;0.70;;
16391;SDS011;8305;-33.882;151.134;2023-09-08T11:45:40;2.53;;;0.50;;
16391;SDS011;8305;-33.882;151.134;2023-09-08T11:48:14;2.80;;;0.73;;
16391;SDS011;8305;-33.882;151.134;2023-09-08T11:50:47;2.10;;;0.60;;
16391;SDS011;8305;-33.882;151.134;2023-09-08T11:53:19;1.30;;;0.60;;
16391;SDS011;8305;-33.882;151.134;2023-09-08T11:55:50;0.95;;;0.65;;
16391;SDS011;8305;-33.882;151.134;2023-09-08T11:58:21;1.65;;;0.60;;
16391;SDS011;8305;-33.882;151.134;2023-09-08T12:00:52;2.05;;;0.90;;
16391;SDS011;8305;-33.882;151.134;2023-09-08T12:03:23;0.80;;;0.50;;
16391;SDS011;8305;-33.882;151.134;2023-09-08T12:05:56;0.98;;;0.65;;
16391;SDS011;8305;-33.882;151.134;2023-09-08T12:08:28;2.03;;;0.70;;
16391;SDS011;8305;-33.882;151.134;2023-09-08T12:10:59;2.15;;;0.70;;
16391;SDS011;8305;-33.882;151.134;2023-09-08T12:13:31;1.85;;;0.75;;
16391;SDS011;8305;-33.882;151.134;2023-09-08T12:16:01;1.65;;;0.80;;
16391;SDS011;8305;-33.882;151.134;2023-09-08T12:18:45;1.60;;;0.50;;
16391;SDS011;8305;-33.882;151.134;2023-09-08T12:21:19;2.17;;;0.70;;
16391;SDS011;8305;-33.882;151.134;2023-09-08T12:23:51;2.50;;;0.70;;
16391;SDS011;8305;-33.882;151.134;2023-09-08T12:26:24;4.13;;;0.70;;
16391;SDS011;8305;-33.882;151.134;2023-09-08T12:28:56;2.55;;;0.70;;
16391;SDS011;8305;-33.882;151.134;2023-09-08T12:31:27;2.90;;;0.90;;
16391;SDS011;8305;-33.882;151.134;2023-09-08T12:33:58;2.47;;;0.88;;
16391;SDS011;8305;-33.882;151.134;2023-09-08T12:36:31;1.90;;;0.55;;
16391;SDS011;8305;-33.882;151.134;2023-09-08T12:39:04;2.92;;;1.08;;
16391;SDS011;8305;-33.882;151.134;2023-09-08T12:41:35;3.20;;;0.98;;
16391;SDS011;8305;-33.882;151.134;2023-09-08T12:44:06;1.58;;;0.68;;
16391;SDS011;8305;-33.882;151.134;2023-09-08T12:46:37;4.65;;;0.90;;
16391;SDS011;8305;-33.882;151.134;2023-09-08T12:49:08;2.10;;;0.70;;
16391;SDS011;8305;-33.882;151.134;2023-09-08T12:51:41;1.75;;;0.70;;
16391;SDS011;8305;-33.882;151.134;2023-09-08T12:54:11;3.10;;;0.60;;
16391;SDS011;8305;-33.882;151.134;2023-09-08T12:56:42;2.80;;;0.80;;
16391;SDS011;8305;-33.882;151.134;2023-09-08T12:59:13;2.35;;;0.88;;
16391;SDS011;8305;-33.882;151.134;2023-09-08T13:01:44;2.20;;;0.80;;
16391;SDS011;8305;-33.882;151.134;2023-09-08T13:04:14;3.95;;;0.70;;
16391;SDS011;8305;-33.882;151.134;2023-09-08T13:06:47;1.73;;;0.80;;
16391;SDS011;8305;-33.882;151.134;2023-09-08T13:09:18;3.17;;;0.93;;
16391;SDS011;8305;-33.882;151.134;2023-09-08T13:11:48;3.05;;;0.98;;
16391;SDS011;8305;-33.882;151.134;2023-09-08T13:14:20;1.60;;;0.73;;
16391;SDS011;8305;-33.882;151.134;2023-09-08T13:16:51;2.95;;;0.98;;
16391;SDS011;8305;-33.882;151.134;2023-09-08T13:19:21;3.40;;;1.02;;
16391;SDS011;8305;-33.882;151.134;2023-09-08T13:21:54;1.85;;;0.70;;
16391;SDS011;8305;-33.882;151.134;2023-09-08T13:24:25;2.45;;;0.80;;
16391;SDS011;8305;-33.882;151.134;2023-09-08T13:26:56;1.48;;;0.90;;
16391;SDS011;8305;-33.882;151.134;2023-09-08T13:29:30;2.95;;;0.80;;
16391;SDS011;8305;-33.882;151.134;2023-09-08T13:32:03;1.20;;;0.90;;
16391;SDS011;8305;-33.882;151.134;2023-09-08T13:34:35;1.83;;;0.77;;
16391;SDS011;8305;-33.882;151.134;2023-09-08T13:37:08;2.78;;;0.90;;
16391;SDS011;8305;-33.882;151.134;2023-09-08T13:39:39;2.03;;;0.82;;
16391;SDS011;8305;-33.882;151.134;2023-09-08T13:42:10;1.85;;;0.80;;
16391;SDS011;8305;-33.882;151.134;2023-09-08T13:44:40;3.50;;;1.00;;
16391;SDS011;8305;-33.882;151.134;2023-09-08T13:47:11;3.38;;;0.90;;
16391;SDS011;8305;-33.882;151.134;2023-09-08T13:49:42;2.50;;;0.90;;
16391;SDS011;8305;-33.882;151.134;2023-09-08T13:52:15;1.58;;;0.90;;
16391;SDS011;8305;-33.882;151.134;2023-09-08T13:54:46;2.38;;;1.00;;
16391;SDS011;8305;-33.882;151.134;2023-09-08T13:57:16;2.70;;;1.00;;
16391;SDS011;8305;-33.882;151.134;2023-09-08T13:59:47;2.78;;;1.10;;
16391;SDS011;8305;-33.882;151.134;2023-09-08T14:02:19;3.05;;;0.90;;
16391;SDS011;8305;-33.882;151.134;2023-09-08T14:04:49;2.05;;;0.90;;
16391;SDS011;8305;-33.882;151.134;2023-09-08T14:07:22;2.65;;;1.10;;
16391;SDS011;8305;-33.882;151.134;2023-09-08T14:09:53;2.60;;;0.93;;
16391;SDS011;8305;-33.882;151.134;2023-09-08T14:12:24;2.17;;;0.88;;
16391;SDS011;8305;-33.882;151.134;2023-09-08T14:14:54;5.38;;;1.00;;
16391;SDS011;8305;-33.882;151.134;2023-09-08T14:17:25;3.03;;;0.95;;
16391;SDS011;8305;-33.882;151.134;2023-09-08T14:19:56;2.40;;;1.10;;
16391;SDS011;8305;-33.882;151.134;2023-09-08T14:22:29;1.95;;;0.80;;
16391;SDS011;8305;-33.882;151.134;2023-09-08T14:24:59;2.88;;;0.88;;
16391;SDS011;8305;-33.882;151.134;2023-09-08T14:27:30;2.65;;;1.40;;
16391;SDS011;8305;-33.882;151.134;2023-09-08T14:30:02;3.70;;;1.00;;
16391;SDS011;8305;-33.882;151.134;2023-09-08T14:32:34;3.22;;;0.80;;
16391;SDS011;8305;-33.882;151.134;2023-09-08T14:35:05;1.45;;;0.88;;
16391;SDS011;8305;-33.882;151.134;2023-09-08T14:37:38;2.75;;;0.90;;
16391;SDS011;8305;-33.882;151.134;2023-09-08T14:40:08;1.70;;;0.60;;
16391;SDS011;8305;-33.882;151.134;2023-09-08T14:42:40;2.47;;;0.90;;
16391;SDS011;8305;-33.882;151.134;2023-09-08T14:45:11;1.48;;;0.60;;
16391;SDS011;8305;-33.882;151.134;2023-09-08T14:47:42;1.52;;;0.88;;
16391;SDS011;8305;-33.882;151.134;2023-09-08T14:50:12;2.78;;;1.00;;